Spokane Fairchild, WA

8:47 AM PDT on July 20, 2017 (GMT -0700)
Fairchild Air Force Base

Weather History for KSKA - June, 2014

Change the Weather History Date:

Wednesday, June 18, 2014

  Actual Average Record
Temperature  
Mean Temperature 56 °F -  
Max Temperature 64 °F 71 °F 84 °F (2003)
Min Temperature 47 °F 48 °F 41 °F (2008)
Degree Days  
Heating Degree Days 10    
Growing Degree Days 6 (Base 50)    
Moisture  
Dew Point 49 °F    
Average Humidity 89    
Maximum Humidity 100    
Minimum Humidity 59    
Precipitation  
Precipitation 0.30 in - - ()
Sea Level Pressure  
Sea Level Pressure 29.97 in    
Wind  
Wind Speed 8 mph (South)    
Max Wind Speed 12 mph    
Max Gust Speed -    
Visibility 9 miles    
Events Rain    
Averages and records for this station are not official NWS values.
T = Trace of Precipitation, MM = Missing Value Source: NWS Daily Summary

Daily Weather History Graph

Daily Weather History Graph

Search for Another Location

Airport or City:

Trip Planner

Search our weather history database for the weather conditions in past years. The results will help you decide how hot, cold, wet, or windy it might be!

Date:

Astronomy

Jun. 18, 2014 Rise Set
Actual Time 4:52 AM PDT 8:51 PM PDT
Civil Twilight 4:11 AM PDT 9:32 PM PDT
Nautical Twilight 3:15 AM PDT 10:28 PM PDT
Astronomical Twilight 1:44 AM PDT 11:59 PM PDT
Moon No Moon Rise 11:46 AM PDT (6/18)
Length of Visible Light 17h 20m
Length of Day
15h 59m
Waning Gibbous, 61% of the Moon is Illuminated
Jun 18
Waning Gibbous
Jun 19
Last Quarter
Jun 27
New
Jul 5
First Quarter
Jul 12
Full

Hourly Weather History & Observations

Time (PDT) Temp. Dew Point Humidity Pressure Visibility Wind Dir Wind Speed Gust Speed Precip Events Conditions
12:03 AM 48.2 °F 48.2 °F 100% 29.97 in 7.0 mi South 5.8 mph - N/A Rain Light Rain
12:58 AM 48.4 °F 48.0 °F 99% 29.99 in 4.0 mi South 8.1 mph - 0.06 in Rain Rain
1:13 AM 48.2 °F 48.2 °F 100% 29.97 in 4.0 mi SSW 9.2 mph - N/A Rain Heavy Rain
1:23 AM 48.2 °F 48.2 °F 100% 29.97 in 4.0 mi SW 11.5 mph - N/A Rain Heavy Rain
1:58 AM 48.0 °F 47.8 °F 99% 29.98 in 10.0 mi South 8.1 mph - 0.14 in Rain Light Rain
2:18 AM 48.2 °F 48.2 °F 100% 29.96 in 10.0 mi South 5.8 mph - N/A Rain Light Rain
2:20 AM 48.2 °F 48.2 °F 100% 29.96 in 10.0 mi South 5.8 mph - N/A   Overcast
2:36 AM 48.2 °F 48.2 °F 100% 29.96 in 10.0 mi South 6.9 mph - N/A Rain Light Rain
2:58 AM 47.8 °F 47.7 °F 99% 29.98 in 10.0 mi SSE 8.1 mph - 0.00 in Rain Light Rain
3:58 AM 47.7 °F 47.5 °F 99% 29.98 in 9.0 mi South 6.9 mph - 0.01 in Rain Light Rain
4:38 AM 48.2 °F 48.2 °F 100% 29.97 in 10.0 mi SE 5.8 mph - N/A Rain Light Rain
4:58 AM 47.7 °F 47.5 °F 99% 29.99 in 7.0 mi SE 8.1 mph - 0.01 in Rain Light Rain
5:33 AM 48.2 °F 46.4 °F 93% 29.98 in 8.0 mi SSE 5.8 mph - N/A Rain Light Rain
5:58 AM 47.5 °F 47.3 °F 99% 29.99 in 9.0 mi South 5.8 mph - 0.06 in Rain Light Rain
6:08 AM 48.2 °F 46.4 °F 93% 29.97 in 10.0 mi South 4.6 mph - N/A Rain Light Rain
6:13 AM 48.2 °F 48.2 °F 100% 29.97 in 10.0 mi SSE 4.6 mph - N/A Rain Light Rain
6:18 AM 48.2 °F 48.2 °F 100% 29.97 in 10.0 mi SSE 4.6 mph - N/A Rain Light Rain
6:33 AM 48.2 °F 48.2 °F 100% 29.97 in 10.0 mi SSE 6.9 mph - N/A Rain Light Rain
6:55 AM 48.2 °F 48.2 °F 100% 29.97 in 10.0 mi South 8.1 mph - N/A   Overcast
6:58 AM 48.2 °F 47.8 °F 99% 29.99 in 10.0 mi SSE 6.9 mph - 0.01 in   Overcast
7:08 AM 48.2 °F 48.2 °F 100% 29.97 in 10.0 mi SSE 5.8 mph - N/A   Overcast
7:13 AM 48.2 °F 48.2 °F 100% 29.97 in 10.0 mi South 6.9 mph - N/A   Overcast
7:28 AM 48.2 °F 48.2 °F 100% 29.98 in 10.0 mi South 5.8 mph - N/A   Light Drizzle
7:48 AM 48.2 °F 48.2 °F 100% 29.98 in 10.0 mi South 8.1 mph - N/A Rain Light Rain
7:58 AM 48.6 °F 48.4 °F 99% 30.00 in 10.0 mi South 6.9 mph - 0.00 in   Light Drizzle
8:18 AM 48.2 °F 48.2 °F 100% 29.98 in 10.0 mi South 8.1 mph - N/A Rain Light Rain
8:34 AM 50.0 °F 48.2 °F 94% 29.98 in 10.0 mi South 8.1 mph - N/A   Overcast
8:49 AM 50.0 °F 48.2 °F 94% 29.98 in 10.0 mi South 8.1 mph - N/A   Overcast
8:58 AM 49.1 °F 48.9 °F 99% 30.01 in 7.0 mi South 8.1 mph - 0.00 in   Overcast
9:07 AM 48.2 °F 48.2 °F 100% 29.98 in 6.0 mi SSW 9.2 mph - N/A Rain Light Rain
9:27 AM 50.0 °F 50.0 °F 100% 29.99 in 5.0 mi SSW 8.1 mph - N/A Rain Light Rain
9:58 AM 49.8 °F 49.8 °F 100% 30.00 in 5.0 mi South 8.1 mph - 0.01 in Rain Light Rain
10:16 AM 50.0 °F 50.0 °F 100% 29.99 in 7.0 mi South 6.9 mph - N/A   Overcast
10:26 AM 50.0 °F 50.0 °F 100% 29.99 in 6.0 mi SSW 5.8 mph - N/A   Light Drizzle
10:44 AM 50.0 °F 50.0 °F 100% 29.99 in 7.0 mi SSW 8.1 mph - N/A   Overcast
10:58 AM 50.0 °F 49.6 °F 99% 30.00 in 6.0 mi SW 9.2 mph - 0.00 in   Overcast
11:58 AM 51.1 °F 50.2 °F 97% 30.00 in 10.0 mi SSW 10.4 mph - N/A   Overcast
12:03 PM 51.8 °F 50.0 °F 94% 29.98 in 10.0 mi SSW 8.1 mph - N/A   Overcast
12:28 PM 53.6 °F 50.0 °F 88% 29.98 in 10.0 mi SSW 9.2 mph - N/A   Overcast
12:33 PM 53.6 °F 50.0 °F 88% 29.98 in 10.0 mi SSW 8.1 mph - N/A   Overcast
12:38 PM 53.6 °F 50.0 °F 88% 29.98 in 10.0 mi SSW 9.2 mph - N/A   Overcast
12:58 PM 53.4 °F 50.4 °F 89% 29.99 in 10.0 mi SSW 10.4 mph - N/A   Overcast
1:08 PM 53.6 °F 50.0 °F 88% 29.98 in 10.0 mi SSW 9.2 mph - N/A   Overcast
1:13 PM 53.6 °F 50.0 °F 88% 29.98 in 10.0 mi South 8.1 mph - N/A   Overcast
1:33 PM 55.4 °F 48.2 °F 77% 29.98 in 10.0 mi SSW 10.4 mph - N/A   Overcast
1:58 PM 55.8 °F 48.9 °F 78% 29.99 in 10.0 mi SSW 8.1 mph - N/A   Overcast
2:03 PM 55.4 °F 48.2 °F 77% 29.98 in 10.0 mi SSW 5.8 mph - N/A   Overcast
2:08 PM 57.2 °F 48.2 °F 72% 29.98 in 10.0 mi SW 9.2 mph - N/A   Overcast
2:13 PM 57.2 °F 48.2 °F 72% 29.97 in 10.0 mi SW 10.4 mph - N/A   Overcast
2:58 PM 59.2 °F 50.0 °F 72% 29.97 in 10.0 mi South 9.2 mph - N/A   Overcast
3:08 PM 59.0 °F 50.0 °F 72% 29.96 in 10.0 mi South 8.1 mph - N/A   Overcast
3:23 PM 60.8 °F 50.0 °F 68% 29.96 in 10.0 mi SSW 10.4 mph - N/A   Overcast
3:28 PM 60.8 °F 50.0 °F 68% 29.96 in 10.0 mi SSW 9.2 mph - N/A   Overcast
3:33 PM 60.8 °F 50.0 °F 68% 29.95 in 10.0 mi South 10.4 mph - N/A   Overcast
3:58 PM 62.1 °F 50.4 °F 65% 29.96 in 10.0 mi SSW 10.4 mph - N/A   Overcast
4:38 PM 62.6 °F 50.0 °F 63% 29.94 in 10.0 mi South 9.2 mph - N/A   Mostly Cloudy
4:58 PM 62.2 °F 49.8 °F 64% 29.95 in 10.0 mi SSW 6.9 mph - N/A   Overcast
5:58 PM 64.9 °F 50.2 °F 59% 29.93 in 10.0 mi SSW 9.2 mph - N/A   Overcast
6:58 PM 64.6 °F 50.4 °F 60% 29.93 in 10.0 mi SSW 10.4 mph - N/A   Partly Cloudy
7:58 PM 62.8 °F 51.3 °F 66% 29.93 in 10.0 mi South 6.9 mph - N/A   Clear
8:58 PM 58.6 °F 51.3 °F 76% 29.93 in 10.0 mi South 6.9 mph - N/A   Clear
9:58 PM 55.8 °F 50.2 °F 82% 29.94 in 10.0 mi South 6.9 mph - N/A   Clear
10:58 PM 54.3 °F 49.6 °F 84% 29.94 in 10.0 mi South 8.1 mph - N/A   Clear
11:58 PM 52.7 °F 49.3 °F 88% 29.94 in 10.0 mi SSE 5.8 mph - N/A   Clear